createdAt,value
2018-05-19T00:00:38.969Z,30.45
2018-05-19T00:01:45.507Z,41.78
2018-05-19T00:02:51.289Z,34.10
2018-05-19T00:03:57.823Z,33.63
2018-05-19T00:05:03.609Z,39.08
2018-05-19T00:06:09.401Z,35.42
2018-05-19T00:07:15.182Z,33.67
2018-05-19T00:08:21.715Z,32.75
2018-05-19T00:09:28.556Z,36.90
2018-05-19T00:10:34.351Z,38.90
2018-05-19T00:11:40.934Z,36.03
2018-05-19T00:12:46.698Z,45.17
2018-05-19T00:13:52.468Z,31.23
2018-05-19T00:14:58.226Z,33.67
2018-05-19T00:16:04.769Z,37.20
2018-05-19T00:17:10.589Z,32.03
2018-05-19T00:18:16.377Z,36.25
2018-05-19T00:19:22.156Z,38.30
2018-05-19T00:20:27.936Z,35.03
2018-05-19T00:21:33.698Z,39.92
2018-05-19T00:22:45.525Z,31.52
2018-05-19T00:23:51.294Z,37.20
2018-05-19T00:24:57.075Z,39.35
2018-05-19T00:26:02.862Z,34.17
2018-05-19T00:27:08.647Z,32.00
2018-05-19T00:28:15.226Z,31.17
2018-05-19T00:29:21.771Z,32.15
2018-05-19T00:30:28.311Z,35.63
2018-05-19T00:31:34.090Z,35.53
2018-05-19T00:32:39.873Z,33.70
2018-05-19T00:33:45.983Z,37.90
2018-05-19T00:34:51.756Z,32.08
2018-05-19T00:35:57.538Z,32.95
2018-05-19T00:37:04.075Z,39.08
2018-05-19T00:38:09.935Z,32.13
2018-05-19T00:39:15.744Z,36.10
2018-05-19T00:40:21.657Z,35.25
2018-05-19T00:41:27.473Z,33.58
2018-05-19T00:42:34.014Z,37.00
2018-05-19T00:43:39.802Z,32.28
2018-05-19T00:44:45.616Z,35.97
2018-05-19T00:45:52.155Z,41.75
2018-05-19T00:46:57.924Z,32.50
2018-05-19T00:48:04.462Z,29.27
2018-05-19T00:49:10.250Z,32.88
2018-05-19T00:50:16.063Z,44.10
2018-05-19T00:51:22.600Z,33.22
2018-05-19T00:52:29.136Z,32.38
2018-05-19T00:53:34.907Z,34.97
2018-05-19T00:54:58.566Z,31.27
2018-05-19T00:56:04.362Z,30.08
2018-05-19T00:57:10.137Z,31.27
2018-05-19T00:58:15.918Z,43.00
2018-05-19T00:59:22.451Z,35.78
2018-05-19T01:00:27.898Z,32.40
2018-05-19T01:01:33.701Z,31.67
2018-05-19T01:02:39.503Z,30.70
2018-05-19T01:03:46.059Z,30.92
2018-05-19T01:04:52.594Z,35.22
2018-05-19T01:05:59.133Z,33.55
2018-05-19T01:07:04.938Z,34.22
2018-05-19T01:08:10.720Z,30.67
2018-05-19T01:09:16.496Z,36.03
2018-05-19T01:10:23.045Z,31.73
2018-05-19T01:11:28.840Z,31.90
2018-05-19T01:12:34.628Z,32.33
2018-05-19T01:13:40.401Z,35.42
2018-05-19T01:14:46.180Z,35.03
2018-05-19T01:15:52.154Z,33.72
2018-05-19T01:16:57.939Z,40.75
2018-05-19T01:18:03.738Z,34.67
2018-05-19T01:19:09.513Z,31.65
2018-05-19T01:20:16.051Z,32.03
2018-05-19T01:21:22.597Z,38.25
2018-05-19T01:22:28.384Z,35.60
2018-05-19T01:23:34.193Z,34.17
2018-05-19T01:24:40.167Z,35.00
2018-05-19T01:25:45.707Z,34.63
2018-05-19T01:26:51.492Z,33.05
2018-05-19T01:27:56.943Z,35.42
2018-05-19T01:29:02.739Z,39.38
2018-05-19T01:30:08.515Z,32.08
2018-05-19T01:31:14.311Z,35.53
2018-05-19T01:32:20.077Z,35.90
2018-05-19T01:33:25.850Z,33.10
2018-05-19T01:34:33.143Z,32.78
2018-05-19T01:35:38.920Z,32.05
2018-05-19T01:36:44.690Z,32.67
2018-05-19T01:37:50.466Z,30.48
2018-05-19T01:38:56.235Z,42.67
2018-05-19T01:40:02.044Z,35.28
2018-05-19T01:41:07.492Z,34.15
2018-05-19T01:42:13.284Z,35.15
2018-05-19T01:43:19.063Z,31.62
2018-05-19T01:44:24.837Z,45.90
2018-05-19T01:45:31.395Z,34.17
2018-05-19T01:46:37.945Z,34.75
2018-05-19T01:47:44.484Z,34.45
2018-05-19T01:48:50.255Z,30.62
2018-05-19T01:49:56.034Z,36.97
2018-05-19T01:51:01.837Z,33.45
2018-05-19T01:52:08.379Z,32.70
2018-05-19T01:53:14.148Z,36.17
2018-05-19T01:54:19.755Z,36.63
2018-05-19T01:55:25.528Z,33.20
2018-05-19T01:56:32.094Z,33.35
2018-05-19T01:57:37.876Z,34.20
2018-05-19T01:58:43.652Z,35.42
2018-05-19T01:59:50.195Z,37.75
2018-05-19T02:00:55.970Z,32.90
2018-05-19T02:02:02.536Z,34.13
2018-05-19T02:03:08.314Z,38.60
2018-05-19T02:04:14.103Z,39.35
2018-05-19T02:05:20.644Z,41.78
2018-05-19T02:06:26.420Z,40.40
2018-05-19T02:07:33.017Z,37.60
2018-05-19T02:08:38.789Z,35.28
2018-05-19T02:09:44.955Z,33.10
2018-05-19T02:10:50.735Z,29.00
2018-05-19T02:11:56.514Z,37.33
2018-05-19T02:13:02.298Z,35.20
2018-05-19T02:14:08.071Z,34.85
2018-05-19T02:15:13.853Z,30.17
2018-05-19T02:16:19.635Z,34.90
2018-05-19T02:17:25.402Z,38.50
2018-05-19T02:18:31.208Z,44.70
2018-05-19T02:19:37.753Z,32.95
2018-05-19T02:20:44.339Z,37.30
2018-05-19T02:21:50.275Z,34.05
2018-05-19T02:22:56.051Z,38.08
2018-05-19T02:24:01.895Z,36.60
2018-05-19T02:25:07.666Z,34.95
2018-05-19T02:26:13.447Z,39.33
2018-05-19T02:27:19.218Z,34.08
2018-05-19T02:28:25.043Z,33.08
2018-05-19T02:29:30.886Z,32.13
2018-05-19T02:30:36.651Z,34.83
2018-05-19T02:31:42.419Z,38.88
2018-05-19T02:32:48.188Z,34.10
2018-05-19T02:33:55.087Z,36.10
2018-05-19T02:35:00.882Z,38.42
2018-05-19T02:36:06.666Z,38.10
2018-05-19T02:37:12.442Z,43.38
2018-05-19T02:38:18.241Z,35.03
2018-05-19T02:39:24.011Z,42.03
2018-05-19T02:40:29.825Z,35.65
2018-05-19T02:41:35.594Z,37.05
2018-05-19T02:42:41.376Z,40.05
2018-05-19T02:43:47.156Z,37.25
2018-05-19T02:44:52.934Z,35.15
2018-05-19T02:45:58.734Z,35.30
2018-05-19T02:47:04.516Z,36.95
2018-05-19T02:48:10.306Z,41.80
2018-05-19T02:49:16.856Z,39.22
2018-05-19T02:50:23.387Z,34.97
2018-05-19T02:51:29.192Z,35.15
2018-05-19T02:52:34.976Z,37.33
2018-05-19T02:53:40.948Z,38.22
2018-05-19T02:54:47.491Z,33.50
2018-05-19T02:55:52.825Z,32.78
2018-05-19T02:56:58.618Z,38.25
2018-05-19T02:58:05.267Z,35.22
2018-05-19T02:59:11.047Z,37.95
2018-05-19T03:00:16.827Z,34.42
2018-05-19T03:01:23.381Z,33.53
2018-05-19T03:02:28.867Z,37.58
2018-05-19T03:03:34.699Z,32.30
2018-05-19T03:04:40.475Z,36.70
2018-05-19T03:05:46.252Z,39.50
2018-05-19T03:06:52.075Z,46.72
2018-05-19T03:07:57.871Z,40.25
2018-05-19T03:09:03.406Z,34.90
2018-05-19T03:10:09.186Z,39.50
2018-05-19T03:11:14.959Z,37.15
2018-05-19T03:12:21.492Z,46.42
2018-05-19T03:13:27.295Z,35.30
2018-05-19T03:14:33.068Z,44.30
2018-05-19T03:15:38.901Z,39.33
2018-05-19T03:16:45.602Z,37.28
2018-05-19T03:17:52.876Z,40.95
2018-05-19T03:18:58.662Z,34.53
2018-05-19T03:20:04.099Z,36.90
2018-05-19T03:21:09.891Z,34.58
2018-05-19T03:22:15.663Z,35.65
2018-05-19T03:23:21.452Z,35.42
2018-05-19T03:24:27.238Z,32.70
2018-05-19T03:25:33.787Z,39.72
2018-05-19T03:26:39.255Z,44.65
2018-05-19T03:27:45.047Z,36.58
2018-05-19T03:28:50.582Z,38.75
2018-05-19T03:29:56.372Z,45.00
2018-05-19T03:31:02.162Z,36.25
2018-05-19T03:32:07.946Z,36.45
2018-05-19T03:33:14.477Z,33.17
2018-05-19T03:34:20.243Z,35.92
2018-05-19T03:35:26.815Z,42.85
2018-05-19T03:36:32.588Z,31.83
2018-05-19T03:37:38.377Z,39.92
2018-05-19T03:38:44.138Z,40.12
2018-05-19T03:39:49.912Z,37.25
2018-05-19T03:40:55.734Z,35.47
2018-05-19T03:42:01.519Z,39.83
2018-05-19T03:43:07.291Z,34.42
2018-05-19T03:44:13.048Z,43.05
2018-05-19T03:45:18.828Z,38.13
2018-05-19T03:46:24.632Z,37.80
2018-05-19T03:47:30.421Z,34.58
2018-05-19T03:48:36.257Z,37.55
2018-05-19T03:49:42.061Z,36.97
2018-05-19T03:50:47.821Z,43.30
2018-05-19T03:51:53.625Z,45.53
2018-05-19T03:53:00.162Z,39.15
2018-05-19T03:54:05.609Z,31.77
2018-05-19T03:55:11.404Z,45.97
2018-05-19T03:56:17.172Z,36.38
2018-05-19T03:57:39.818Z,41.08
2018-05-19T03:59:02.570Z,34.83
2018-05-19T04:00:26.008Z,37.70
2018-05-19T04:01:48.765Z,31.00
2018-05-19T04:02:54.560Z,38.35
2018-05-19T04:04:00.331Z,34.67
2018-05-19T04:05:05.449Z,40.03
2018-05-19T04:06:11.232Z,34.28
2018-05-19T04:07:17.820Z,37.55
2018-05-19T04:08:23.626Z,37.42
2018-05-19T04:09:30.169Z,35.33
2018-05-19T04:10:35.963Z,36.17
2018-05-19T04:11:41.722Z,41.55
2018-05-19T04:12:47.495Z,36.83
2018-05-19T04:13:54.416Z,38.60
2018-05-19T04:15:00.187Z,40.63
2018-05-19T04:16:05.982Z,38.35
2018-05-19T04:17:12.502Z,36.72
2018-05-19T04:18:18.275Z,43.55
2018-05-19T04:19:24.056Z,39.97
2018-05-19T04:20:29.886Z,42.60
2018-05-19T04:21:35.646Z,40.20
2018-05-19T04:22:41.424Z,38.38
2018-05-19T04:23:48.024Z,38.83
2018-05-19T04:24:53.833Z,35.42
2018-05-19T04:25:59.612Z,46.08
2018-05-19T04:27:05.384Z,36.22
2018-05-19T04:28:11.177Z,32.30
2018-05-19T04:29:17.719Z,36.10
2018-05-19T04:30:23.513Z,38.67
2018-05-19T04:31:29.279Z,39.40
2018-05-19T04:32:35.055Z,39.90
2018-05-19T04:33:41.608Z,36.17
2018-05-19T04:34:48.163Z,40.22
2018-05-19T04:35:53.963Z,38.03
2018-05-19T04:36:59.768Z,36.30
2018-05-19T04:38:05.547Z,42.13
2018-05-19T04:39:11.319Z,43.45
2018-05-19T04:40:17.080Z,41.22
2018-05-19T04:41:22.867Z,41.92
2018-05-19T04:42:28.644Z,43.85
2018-05-19T04:43:34.408Z,42.88
2018-05-19T04:44:40.185Z,34.08
2018-05-19T04:45:45.956Z,38.95
2018-05-19T04:46:51.419Z,44.53
2018-05-19T04:47:57.190Z,41.15
2018-05-19T04:49:03.734Z,44.80
2018-05-19T04:50:09.306Z,45.47
2018-05-19T04:51:15.076Z,42.75
2018-05-19T04:52:20.866Z,40.38
2018-05-19T04:53:27.416Z,41.45
2018-05-19T04:54:33.206Z,44.45
2018-05-19T04:55:38.975Z,46.65
2018-05-19T04:56:44.515Z,47.92
2018-05-19T04:57:50.510Z,40.42
2018-05-19T04:58:56.662Z,43.72
2018-05-19T05:00:02.434Z,41.67
2018-05-19T05:01:08.214Z,36.72
2018-05-19T05:02:14.747Z,42.88
2018-05-19T05:03:20.566Z,44.13
2018-05-19T05:04:26.345Z,43.30
2018-05-19T05:05:32.095Z,37.20
2018-05-19T05:06:37.863Z,40.10
2018-05-19T05:07:44.400Z,39.33
2018-05-19T05:08:50.190Z,37.65
2018-05-19T05:09:56.025Z,41.92
2018-05-19T05:11:01.807Z,37.42
2018-05-19T05:12:07.632Z,38.38
2018-05-19T05:13:13.401Z,45.38
2018-05-19T05:14:19.200Z,46.90
2018-05-19T05:15:24.960Z,47.75
2018-05-19T05:16:30.732Z,45.00
2018-05-19T05:17:36.502Z,41.30
2018-05-19T05:18:43.040Z,35.10
2018-05-19T05:19:48.860Z,46.03
2018-05-19T05:20:55.076Z,45.63
2018-05-19T05:22:00.846Z,41.03
2018-05-19T05:23:06.617Z,41.47
2018-05-19T05:24:13.892Z,40.90
2018-05-19T05:25:19.677Z,39.95
2018-05-19T05:26:25.447Z,40.97
2018-05-19T05:27:31.225Z,41.08
2018-05-19T05:28:37.001Z,38.13
2018-05-19T05:29:42.767Z,45.58
2018-05-19T05:30:48.560Z,42.08
2018-05-19T05:31:55.123Z,39.13
2018-05-19T05:33:01.652Z,46.70
2018-05-19T05:34:07.458Z,36.50
2018-05-19T05:35:13.236Z,40.78
2018-05-19T05:36:19.036Z,36.70
2018-05-19T05:37:24.810Z,34.25
2018-05-19T05:38:29.623Z,41.03
2018-05-19T05:39:36.018Z,35.03
2018-05-19T05:40:42.555Z,35.35
2018-05-19T05:41:48.352Z,34.00
2018-05-19T05:42:54.119Z,38.95
2018-05-19T05:43:59.901Z,38.53
2018-05-19T05:45:05.684Z,49.00
2018-05-19T05:46:11.450Z,39.95
2018-05-19T05:47:17.227Z,34.00
2018-05-19T05:48:23.803Z,38.17
2018-05-19T05:49:30.354Z,40.00
2018-05-19T05:50:36.882Z,38.40
2018-05-19T05:51:42.654Z,28.17
2018-05-19T05:52:49.225Z,38.65
2018-05-19T05:53:55.778Z,35.85
2018-05-19T05:55:02.776Z,34.55
2018-05-19T05:56:08.547Z,34.45
2018-05-19T05:57:14.324Z,41.25
2018-05-19T05:58:20.888Z,43.25
2018-05-19T05:59:27.451Z,31.98
2018-05-19T06:00:34.182Z,39.13
2018-05-19T06:01:39.946Z,29.80
2018-05-19T06:02:46.488Z,36.67
2018-05-19T06:03:52.290Z,33.08
2018-05-19T06:04:58.062Z,34.75
2018-05-19T06:06:03.839Z,36.65
2018-05-19T06:07:10.378Z,31.75
2018-05-19T06:08:16.915Z,35.55
2018-05-19T06:09:22.710Z,32.10
2018-05-19T06:10:29.255Z,41.80
2018-05-19T06:11:35.794Z,37.08
2018-05-19T06:12:41.575Z,35.38
2018-05-19T06:13:48.113Z,31.98
2018-05-19T06:14:53.922Z,34.17
2018-05-19T06:15:59.688Z,28.70
2018-05-19T06:17:05.477Z,35.08
2018-05-19T06:18:11.323Z,32.25
2018-05-19T06:19:17.090Z,28.87
2018-05-19T06:20:22.888Z,31.77
2018-05-19T06:21:29.426Z,37.83
2018-05-19T06:22:35.199Z,29.33
2018-05-19T06:23:40.970Z,34.42
2018-05-19T06:24:46.740Z,26.20
2018-05-19T06:25:52.539Z,27.25
2018-05-19T06:26:58.303Z,27.00
2018-05-19T06:28:04.086Z,28.10
2018-05-19T06:29:09.862Z,24.60
2018-05-19T06:30:15.632Z,26.75
2018-05-19T06:31:21.425Z,30.42
2018-05-19T06:32:27.947Z,28.80
2018-05-19T06:33:33.715Z,26.50
2018-05-19T06:34:39.491Z,25.73
2018-05-19T06:35:45.282Z,30.27
2018-05-19T06:36:50.754Z,36.28
2018-05-19T06:37:56.529Z,31.55
2018-05-19T06:39:02.377Z,26.45
2018-05-19T06:40:08.140Z,25.65
2018-05-19T06:41:13.909Z,28.33
2018-05-19T06:42:20.695Z,30.65
2018-05-19T06:43:26.466Z,25.23
2018-05-19T06:44:32.239Z,28.15
2018-05-19T06:45:38.013Z,29.73
2018-05-19T06:46:44.553Z,30.35
2018-05-19T06:47:51.833Z,23.48
2018-05-19T06:48:58.044Z,30.00
2018-05-19T06:50:03.818Z,29.52
2018-05-19T06:51:09.603Z,28.00
2018-05-19T06:52:15.375Z,22.15
2018-05-19T06:53:21.172Z,26.52
2018-05-19T06:54:27.720Z,29.37
2018-05-19T06:55:34.283Z,33.58
2018-05-19T06:56:40.826Z,24.50
2018-05-19T06:57:46.594Z,28.80
2018-05-19T06:58:52.391Z,25.45
2018-05-19T06:59:58.155Z,22.25
2018-05-19T07:01:03.924Z,28.10
2018-05-19T07:02:09.735Z,25.60
2018-05-19T07:03:15.514Z,28.85
2018-05-19T07:04:21.667Z,22.62
2018-05-19T07:05:27.547Z,24.10
2018-05-19T07:06:33.344Z,29.55
2018-05-19T07:07:39.131Z,29.98
2018-05-19T07:08:44.926Z,26.00
2018-05-19T07:09:51.508Z,23.45
2018-05-19T07:10:57.299Z,22.25
2018-05-19T07:12:03.079Z,23.92
2018-05-19T07:13:08.856Z,22.50
2018-05-19T07:14:14.632Z,24.50
2018-05-19T07:15:20.415Z,24.42
2018-05-19T07:16:26.176Z,26.87
2018-05-19T07:17:31.754Z,25.85
2018-05-19T07:18:37.527Z,24.02
2018-05-19T07:19:43.324Z,26.55
2018-05-19T07:20:49.936Z,27.90
2018-05-19T07:21:55.703Z,23.08
2018-05-19T07:23:01.502Z,22.85
2018-05-19T07:24:08.080Z,28.10
2018-05-19T07:25:13.888Z,22.70
2018-05-19T07:26:19.688Z,20.65
2018-05-19T07:27:25.474Z,22.20
2018-05-19T07:28:32.223Z,25.00
2018-05-19T07:29:37.983Z,24.17
2018-05-19T07:30:44.541Z,24.92
2018-05-19T07:31:50.299Z,25.37
2018-05-19T07:32:57.060Z,22.20
2018-05-19T07:34:03.594Z,22.50
2018-05-19T07:35:09.398Z,23.70
2018-05-19T07:36:15.235Z,20.73
2018-05-19T07:37:21.190Z,21.48
2018-05-19T07:38:28.683Z,25.27
2018-05-19T07:39:34.471Z,21.15
2018-05-19T07:40:41.010Z,18.87
2018-05-19T07:41:46.776Z,18.50
2018-05-19T07:42:53.357Z,16.58
2018-05-19T07:43:59.145Z,17.60
2018-05-19T07:45:04.919Z,17.95
2018-05-19T07:46:11.808Z,18.98
2018-05-19T07:47:17.574Z,20.83
2018-05-19T07:48:23.362Z,19.42
2018-05-19T07:49:29.911Z,18.98
2018-05-19T07:50:35.690Z,19.20
2018-05-19T07:51:41.459Z,20.42
2018-05-19T07:52:47.235Z,19.20
2018-05-19T07:53:53.026Z,18.83
2018-05-19T07:54:58.863Z,20.90
2018-05-19T07:56:04.625Z,19.62
2018-05-19T07:57:10.438Z,21.80
2018-05-19T07:58:16.974Z,19.40
2018-05-19T07:59:22.815Z,16.37
2018-05-19T08:00:29.367Z,19.98
2018-05-19T08:01:35.139Z,14.35
2018-05-19T08:02:40.920Z,15.35
2018-05-19T08:03:46.692Z,16.50
2018-05-19T08:04:53.257Z,14.48
2018-05-19T08:05:59.040Z,15.02
2018-05-19T08:07:04.613Z,18.23
2018-05-19T08:08:10.391Z,14.90
2018-05-19T08:09:16.945Z,19.45
2018-05-19T08:10:23.503Z,17.92
2018-05-19T08:11:30.064Z,15.90
2018-05-19T08:12:36.609Z,17.23
2018-05-19T08:13:42.390Z,20.65
2018-05-19T08:14:48.170Z,17.92
2018-05-19T08:15:53.983Z,18.48
2018-05-19T08:16:59.754Z,17.20
2018-05-19T08:18:05.559Z,20.60
2018-05-19T08:19:11.359Z,22.05
2018-05-19T08:20:17.193Z,18.02
2018-05-19T08:21:23.913Z,20.08
2018-05-19T08:22:29.687Z,17.12
2018-05-19T08:23:35.469Z,20.17
2018-05-19T08:24:41.230Z,23.23
2018-05-19T08:25:47.579Z,24.85
2018-05-19T08:26:53.911Z,20.85
2018-05-19T08:27:59.678Z,18.80
2018-05-19T08:29:05.459Z,18.60
2018-05-19T08:30:11.225Z,18.73
2018-05-19T08:31:17.003Z,21.15
2018-05-19T08:32:23.563Z,18.10
2018-05-19T08:33:30.108Z,21.37
2018-05-19T08:34:35.880Z,23.87
2018-05-19T08:35:41.646Z,22.52
2018-05-19T08:36:47.631Z,20.42
2018-05-19T08:37:53.418Z,17.83
2018-05-19T08:38:59.204Z,22.42
2018-05-19T08:40:04.582Z,19.55
2018-05-19T08:41:11.212Z,26.40
2018-05-19T08:42:17.883Z,17.77
2018-05-19T08:43:23.684Z,25.42
2018-05-19T08:44:29.463Z,18.40
2018-05-19T08:45:35.255Z,18.08
2018-05-19T08:46:41.048Z,17.42
2018-05-19T08:47:46.822Z,18.50
2018-05-19T08:48:52.619Z,20.75
2018-05-19T08:49:59.176Z,18.80
2018-05-19T08:51:04.616Z,18.90
2018-05-19T08:52:10.391Z,17.92
2018-05-19T08:53:16.167Z,21.90
2018-05-19T08:54:21.981Z,21.67
2018-05-19T08:55:27.763Z,19.35
2018-05-19T08:56:33.537Z,16.37
2018-05-19T08:57:39.426Z,19.52
2018-05-19T08:58:45.195Z,17.40
2018-05-19T08:59:50.988Z,21.37
2018-05-19T09:00:57.534Z,19.35
2018-05-19T09:02:04.167Z,16.05
2018-05-19T09:03:09.967Z,17.12
2018-05-19T09:04:15.811Z,19.25
2018-05-19T09:05:21.610Z,19.58
2018-05-19T09:06:27.392Z,16.80
2018-05-19T09:07:33.178Z,18.50
2018-05-19T09:08:38.972Z,16.40
2018-05-19T09:09:44.761Z,16.05
2018-05-19T09:10:50.883Z,21.55
2018-05-19T09:11:56.711Z,15.88
2018-05-19T09:13:02.565Z,17.02
2018-05-19T09:14:08.332Z,19.17
2018-05-19T09:15:14.118Z,17.08
2018-05-19T09:16:20.577Z,16.52
2018-05-19T09:17:27.361Z,16.80
2018-05-19T09:18:34.227Z,17.05
2018-05-19T09:19:40.083Z,18.37
2018-05-19T09:20:46.141Z,17.55
2018-05-19T09:21:52.178Z,17.02
2018-05-19T09:22:58.843Z,16.20
2018-05-19T09:24:04.816Z,15.93
2018-05-19T09:25:10.943Z,16.37
2018-05-19T09:26:17.019Z,15.43
2018-05-19T09:27:22.827Z,18.77
2018-05-19T09:28:28.819Z,16.58
2018-05-19T09:29:34.595Z,21.65
2018-05-19T09:30:41.167Z,22.58
2018-05-19T09:31:47.709Z,18.02
2018-05-19T09:32:54.302Z,19.90
2018-05-19T09:34:00.192Z,17.95
2018-05-19T09:35:05.958Z,16.42
2018-05-19T09:36:12.750Z,17.25
2018-05-19T09:37:18.639Z,16.52
2018-05-19T09:38:24.205Z,20.58
2018-05-19T09:39:31.816Z,18.40
2018-05-19T09:40:37.838Z,17.95
2018-05-19T09:41:44.735Z,18.85
2018-05-19T09:42:51.090Z,17.12
2018-05-19T09:43:56.876Z,16.45
2018-05-19T09:45:02.691Z,19.65
2018-05-19T09:46:08.471Z,17.80
2018-05-19T09:47:14.254Z,19.20
2018-05-19T09:48:20.026Z,16.33
2018-05-19T09:49:25.529Z,15.20
2018-05-19T09:50:32.095Z,17.23
2018-05-19T09:51:37.872Z,15.40
2018-05-19T09:52:43.084Z,16.12
2018-05-19T09:53:48.914Z,16.80
2018-05-19T09:54:54.722Z,16.33
2018-05-19T09:56:01.428Z,20.05
2018-05-19T09:57:08.093Z,15.50
2018-05-19T09:58:13.867Z,16.02
2018-05-19T09:59:20.420Z,15.27
2018-05-19T10:00:26.691Z,16.85
2018-05-19T10:01:33.235Z,16.25
2018-05-19T10:02:39.015Z,15.70
2018-05-19T10:03:44.855Z,15.18
2018-05-19T10:04:51.479Z,16.95
2018-05-19T10:05:58.991Z,16.25
2018-05-19T10:07:06.032Z,18.42
2018-05-19T10:08:11.828Z,18.17
2018-05-19T10:09:17.607Z,17.33
2018-05-19T10:10:23.388Z,16.98
2018-05-19T10:11:30.052Z,17.20
2018-05-19T10:12:36.013Z,18.37
2018-05-19T10:13:42.734Z,17.58
2018-05-19T10:14:50.498Z,15.50
2018-05-19T10:15:56.745Z,16.98
2018-05-19T10:17:02.568Z,16.90
2018-05-19T10:18:08.342Z,15.73
2018-05-19T10:19:14.144Z,17.62
2018-05-19T10:20:20.687Z,17.52
2018-05-19T10:21:27.244Z,15.98
2018-05-19T10:22:33.060Z,16.65
2018-05-19T10:23:38.831Z,17.02
2018-05-19T10:24:44.795Z,18.02
2018-05-19T10:25:50.614Z,15.23
2018-05-19T10:26:57.231Z,16.77
2018-05-19T10:28:03.163Z,16.37
2018-05-19T10:29:09.911Z,16.98
2018-05-19T10:30:16.590Z,17.10
2018-05-19T10:31:22.415Z,17.87
2018-05-19T10:32:29.720Z,16.77
2018-05-19T10:33:35.707Z,18.27
2018-05-19T10:34:43.159Z,17.62
2018-05-19T10:35:48.945Z,21.52
2018-05-19T10:36:57.736Z,18.23
2018-05-19T10:38:03.511Z,16.05
2018-05-19T10:39:10.928Z,17.67
2018-05-19T10:40:16.704Z,18.17
2018-05-19T10:41:22.294Z,23.92
2018-05-19T10:42:28.066Z,17.60
2018-05-19T10:43:33.844Z,20.58
2018-05-19T10:44:39.653Z,17.12
2018-05-19T10:45:46.559Z,21.27
2018-05-19T10:46:53.088Z,18.92
2018-05-19T10:47:59.800Z,18.98
2018-05-19T10:49:05.572Z,18.52
2018-05-19T10:50:11.376Z,19.98
2018-05-19T10:51:18.129Z,16.70
2018-05-19T10:52:24.671Z,17.75
2018-05-19T10:53:30.482Z,17.87
2018-05-19T10:54:36.273Z,17.42
2018-05-19T10:55:42.839Z,17.10
2018-05-19T10:56:49.497Z,17.30
2018-05-19T10:57:56.288Z,16.77
2018-05-19T10:59:02.088Z,17.30
2018-05-19T11:00:08.754Z,18.00
2018-05-19T11:01:15.361Z,18.15
2018-05-19T11:02:21.160Z,16.27
2018-05-19T11:03:27.050Z,18.05
2018-05-19T11:04:32.897Z,17.27
2018-05-19T11:05:38.715Z,17.48
2018-05-19T11:06:45.275Z,19.52
2018-05-19T11:07:51.823Z,15.73
2018-05-19T11:08:57.726Z,19.23
2018-05-19T11:10:04.476Z,17.00
2018-05-19T11:11:10.500Z,17.27
2018-05-19T11:12:16.304Z,16.27
2018-05-19T11:13:22.976Z,18.83
2018-05-19T11:14:28.990Z,15.30
2018-05-19T11:15:35.222Z,16.35
2018-05-19T11:16:41.817Z,16.52
2018-05-19T11:17:48.466Z,17.02
2018-05-19T11:18:54.375Z,19.48
2018-05-19T11:20:01.465Z,16.75
2018-05-19T11:21:07.522Z,17.40
2018-05-19T11:22:13.558Z,17.37
2018-05-19T11:23:19.756Z,23.10
2018-05-19T11:24:27.295Z,17.02
2018-05-19T11:25:33.549Z,16.92
2018-05-19T11:26:39.598Z,22.08
2018-05-19T11:27:45.540Z,17.95
2018-05-19T11:28:52.491Z,16.48
2018-05-19T11:29:58.610Z,18.37
2018-05-19T11:31:07.228Z,19.70
2018-05-19T11:32:14.549Z,19.48
2018-05-19T11:33:21.268Z,16.87
2018-05-19T11:34:27.166Z,18.58
2018-05-19T11:35:33.223Z,17.80
2018-05-19T11:36:39.285Z,19.55
2018-05-19T11:37:45.089Z,20.02
2018-05-19T11:38:51.175Z,19.92
2018-05-19T11:39:57.130Z,18.92
2018-05-19T11:41:02.932Z,21.05
2018-05-19T11:42:08.753Z,21.83
2018-05-19T11:43:15.333Z,19.58
2018-05-19T11:44:21.959Z,19.30
2018-05-19T11:45:28.690Z,19.65
2018-05-19T11:46:34.496Z,20.80
2018-05-19T11:47:41.140Z,24.35
2018-05-19T11:48:47.212Z,17.75
2018-05-19T11:49:53.024Z,19.25
2018-05-19T11:50:59.608Z,18.92
2018-05-19T11:52:05.401Z,20.00
2018-05-19T11:53:11.259Z,17.37
2018-05-19T11:54:17.100Z,19.20
2018-05-19T11:55:23.661Z,18.42
2018-05-19T11:56:30.471Z,19.23
2018-05-19T11:57:36.342Z,19.77
2018-05-19T11:58:42.362Z,19.58
2018-05-19T11:59:49.236Z,21.17
2018-05-19T12:00:55.006Z,19.17
2018-05-19T12:02:01.729Z,21.02
2018-05-19T12:03:08.907Z,20.33
2018-05-19T12:04:15.789Z,19.52
2018-05-19T12:05:21.596Z,23.30
2018-05-19T12:06:28.127Z,23.05
2018-05-19T12:07:33.917Z,18.45
2018-05-19T12:08:40.524Z,18.90
2018-05-19T12:09:46.295Z,17.77
2018-05-19T12:10:52.081Z,20.30
2018-05-19T12:11:57.966Z,20.17
2018-05-19T12:13:03.637Z,19.73
2018-05-19T12:14:10.185Z,19.75
2018-05-19T12:15:15.984Z,18.33
2018-05-19T12:16:21.797Z,18.85
2018-05-19T12:17:27.711Z,18.67
2018-05-19T12:18:34.313Z,19.77
2018-05-19T12:19:41.849Z,17.30
2018-05-19T12:20:48.735Z,17.48
2018-05-19T12:21:55.417Z,18.35
2018-05-19T12:23:01.385Z,19.00
2018-05-19T12:24:07.204Z,19.62
2018-05-19T12:25:13.585Z,19.65
2018-05-19T12:26:20.335Z,22.92
2018-05-19T12:27:26.129Z,19.67
2018-05-19T12:28:31.984Z,18.87
2018-05-19T12:29:37.972Z,19.37
2018-05-19T12:30:43.779Z,18.95
2018-05-19T12:31:49.573Z,19.60
2018-05-19T12:32:55.361Z,20.23
2018-05-19T12:34:02.963Z,20.15
2018-05-19T12:35:09.656Z,18.52
2018-05-19T12:36:15.695Z,18.42
2018-05-19T12:37:21.503Z,21.58
2018-05-19T12:38:29.116Z,17.60
2018-05-19T12:39:35.148Z,17.75
2018-05-19T12:40:41.734Z,19.92
2018-05-19T12:41:47.507Z,18.87
2018-05-19T12:42:53.273Z,21.62
2018-05-19T12:43:59.056Z,18.48
2018-05-19T12:45:04.273Z,20.48
2018-05-19T12:46:10.063Z,19.42
2018-05-19T12:47:15.838Z,20.60
2018-05-19T12:48:22.371Z,20.75
2018-05-19T12:49:28.149Z,20.58
2018-05-19T12:50:34.687Z,19.42
2018-05-19T12:51:40.275Z,20.37
2018-05-19T12:52:46.053Z,19.77
2018-05-19T12:53:51.829Z,22.92
2018-05-19T12:54:58.371Z,19.75
2018-05-19T12:56:04.140Z,20.95
2018-05-19T12:57:10.697Z,20.65
2018-05-19T12:58:17.239Z,19.12
2018-05-19T12:59:23.022Z,22.62
2018-05-19T13:00:28.974Z,21.33
2018-05-19T13:01:34.771Z,20.17
2018-05-19T13:02:41.340Z,19.90
2018-05-19T13:03:47.633Z,21.12
2018-05-19T13:04:53.410Z,19.50
2018-05-19T13:05:59.222Z,22.42
2018-05-19T13:07:04.986Z,21.35
2018-05-19T13:08:10.776Z,20.77
2018-05-19T13:09:16.553Z,24.70
2018-05-19T13:10:22.315Z,21.62
2018-05-19T13:11:28.099Z,19.85
2018-05-19T13:12:35.549Z,20.45
2018-05-19T13:13:42.236Z,20.17
2018-05-19T13:14:48.787Z,19.73
2018-05-19T13:15:55.330Z,19.62
2018-05-19T13:17:01.881Z,21.00
2018-05-19T13:18:07.680Z,21.05
2018-05-19T13:19:13.492Z,23.52
2018-05-19T13:20:19.265Z,25.30
2018-05-19T13:21:25.041Z,24.63
2018-05-19T13:22:30.957Z,21.35
2018-05-19T13:23:36.966Z,22.65
2018-05-19T13:24:44.267Z,22.33
2018-05-19T13:25:50.858Z,20.70
2018-05-19T13:26:56.850Z,21.08
2018-05-19T13:28:04.335Z,21.95
2018-05-19T13:29:10.106Z,23.12
2018-05-19T13:30:15.884Z,21.50
2018-05-19T13:31:21.666Z,21.65
2018-05-19T13:32:28.250Z,24.85
2018-05-19T13:33:34.028Z,20.40
2018-05-19T13:34:39.805Z,23.10
2018-05-19T13:35:45.590Z,22.75
2018-05-19T13:36:51.376Z,22.37
2018-05-19T13:37:57.191Z,21.55
2018-05-19T13:39:02.974Z,25.12
2018-05-19T13:40:08.735Z,22.95
2018-05-19T13:41:14.540Z,24.30
2018-05-19T13:42:20.312Z,22.05
2018-05-19T13:43:27.521Z,23.45
2018-05-19T13:44:33.295Z,28.92
2018-05-19T13:45:40.630Z,23.08
2018-05-19T13:46:46.464Z,21.05
2018-05-19T13:47:52.399Z,20.12
2018-05-19T13:48:58.184Z,21.15
2018-05-19T13:50:04.980Z,19.30
2018-05-19T13:51:10.755Z,20.80
2018-05-19T13:52:16.547Z,23.92
2018-05-19T13:53:23.327Z,21.15
2018-05-19T13:54:29.107Z,19.60
2018-05-19T13:55:34.879Z,19.80
2018-05-19T13:56:40.670Z,21.33
2018-05-19T13:57:47.155Z,20.88
2018-05-19T13:58:53.035Z,27.02
2018-05-19T13:59:58.794Z,20.75
2018-05-19T14:01:04.227Z,22.45
2018-05-19T14:02:10.000Z,24.65
2018-05-19T14:03:16.684Z,23.38
2018-05-19T14:04:22.475Z,23.20
2018-05-19T14:05:29.751Z,21.75
2018-05-19T14:06:35.528Z,21.73
2018-05-19T14:07:42.081Z,25.27
2018-05-19T14:08:48.683Z,20.60
2018-05-19T14:09:54.463Z,19.25
2018-05-19T14:10:59.992Z,23.20
2018-05-19T14:12:05.779Z,20.12